createdAt,value
2022-12-26T00:12:30.490Z,11.4
2022-12-26T00:27:07.710Z,11.4
2022-12-26T00:41:45.512Z,11.4
2022-12-26T00:56:21.978Z,11.4
2022-12-26T01:10:59.806Z,11.4
2022-12-26T01:25:37.901Z,11.5
2022-12-26T01:40:42.085Z,11.4
2022-12-26T01:55:19.230Z,11.4
2022-12-26T02:09:57.675Z,11.5
2022-12-26T02:24:34.907Z,11.4
2022-12-26T02:39:42.971Z,11.4
2022-12-26T02:54:10.163Z,11.5
2022-12-26T03:08:48.194Z,11.6
2022-12-26T03:23:25.805Z,11.5
2022-12-26T03:38:03.055Z,11.5
2022-12-26T03:52:39.808Z,11.1
2022-12-26T04:07:16.588Z,11.1
2022-12-26T04:21:53.757Z,10.9
2022-12-26T04:36:31.258Z,11
2022-12-26T04:51:09.107Z,11.2
2022-12-26T05:05:47.439Z,11.3
2022-12-26T05:20:24.248Z,11.1
2022-12-26T05:35:01.142Z,10.9
2022-12-26T05:49:38.815Z,10.7
2022-12-26T06:04:16.891Z,10.4
2022-12-26T06:18:53.128Z,10.3
2022-12-26T06:33:30.894Z,10.3
2022-12-26T06:48:10.949Z,10.1
2022-12-26T07:02:46.699Z,9.8
2022-12-26T07:17:24.962Z,9.8
2022-12-26T07:32:02.507Z,9.8
2022-12-26T07:46:40.153Z,9.9
2022-12-26T08:01:16.169Z,9.9
2022-12-26T08:15:54.526Z,10
2022-12-26T08:30:31.870Z,10
2022-12-26T08:45:08.698Z,10.2
2022-12-26T08:59:46.497Z,10
2022-12-26T09:14:24.143Z,10.2
2022-12-26T09:29:02.163Z,10.3
2022-12-26T09:43:42.810Z,10.4
2022-12-26T09:58:23.432Z,10.4
2022-12-26T10:13:04.170Z,10.5
2022-12-26T10:27:41.196Z,10.6
2022-12-26T10:42:19.295Z,10.7
2022-12-26T10:56:57.758Z,10.8
2022-12-26T11:11:35.653Z,10.7
2022-12-26T11:26:13.178Z,10.7
2022-12-26T11:40:49.834Z,10.7
2022-12-26T11:55:27.651Z,10.7
2022-12-26T12:10:06.145Z,10.7
2022-12-26T12:24:44.477Z,10.8
2022-12-26T12:39:22.471Z,10.8
2022-12-26T12:54:00.358Z,10.6
2022-12-26T13:08:38.014Z,10.4
2022-12-26T13:23:14.190Z,10.2
2022-12-26T13:37:51.880Z,9.7
2022-12-26T13:52:29.119Z,9.8
2022-12-26T14:07:08.204Z,9.7
2022-12-26T14:21:46.625Z,9.4
2022-12-26T14:36:22.640Z,9.4
2022-12-26T14:51:03.227Z,9.3
2022-12-26T15:05:38.741Z,8.8
2022-12-26T15:20:15.808Z,8.6
2022-12-26T15:34:53.484Z,8.5
2022-12-26T15:49:29.190Z,8.5
2022-12-26T16:04:07.982Z,8.3
2022-12-26T16:18:44.067Z,8
2022-12-26T16:33:21.192Z,7.9
2022-12-26T16:47:58.065Z,7.6
2022-12-26T17:02:39.525Z,7.5
2022-12-26T17:17:16.021Z,7.3
2022-12-26T17:31:54.197Z,7.3
2022-12-26T17:46:31.053Z,7.1
2022-12-26T18:01:09.486Z,6.9
2022-12-26T18:15:46.970Z,6.5
2022-12-26T18:30:25.103Z,6.5
2022-12-26T18:45:01.284Z,6
2022-12-26T18:59:38.328Z,5.5
2022-12-26T19:14:15.874Z,5.4
2022-12-26T19:28:52.235Z,5
2022-12-26T19:43:30.748Z,4.7
2022-12-26T19:58:08.888Z,4.8
2022-12-26T20:12:47.166Z,4.4
2022-12-26T20:27:26.361Z,4.5
2022-12-26T20:42:04.557Z,4.3
2022-12-26T20:56:42.725Z,4.2
2022-12-26T21:11:20.143Z,4.2
2022-12-26T21:25:58.575Z,3.9
2022-12-26T21:40:36.518Z,3.7
2022-12-26T21:55:14.408Z,3.6
2022-12-26T22:09:52.805Z,3.4
2022-12-26T22:24:30.362Z,3.4
2022-12-26T22:39:09.956Z,3.5
2022-12-26T22:53:48.707Z,3.3
2022-12-26T23:08:27.858Z,3.1
2022-12-26T23:23:06.672Z,3.1
2022-12-26T23:37:46.866Z,3
2022-12-26T23:52:30.400Z,3.3
